createdAt,value
2018-11-10T00:11:45.784Z,20.40
2018-11-10T00:38:43.282Z,20.40
2018-11-10T00:51:50.438Z,20.50
2018-11-10T01:04:57.608Z,20.40
2018-11-10T01:18:04.744Z,20.40
2018-11-10T01:31:11.939Z,20.40
2018-11-10T01:44:19.113Z,20.40
2018-11-10T01:57:26.265Z,20.40
2018-11-10T02:23:35.959Z,20.40
2018-11-10T02:36:43.149Z,20.40
2018-11-10T02:49:50.321Z,20.40
2018-11-10T03:02:57.496Z,20.40
2018-11-10T03:16:04.680Z,20.40
2018-11-10T03:29:11.842Z,20.40
2018-11-10T03:42:18.997Z,20.40
2018-11-10T03:55:26.152Z,20.40
2018-11-10T04:08:33.325Z,20.40
2018-11-10T04:21:40.523Z,20.40
2018-11-10T04:34:47.704Z,20.40
2018-11-10T04:47:54.853Z,20.40
2018-11-10T05:01:02.038Z,20.40
2018-11-10T05:14:09.203Z,20.30
2018-11-10T05:27:16.395Z,20.30
2018-11-10T05:40:23.575Z,20.30
2018-11-10T05:53:30.736Z,20.30
2018-11-10T06:06:37.906Z,20.40
2018-11-10T06:32:47.984Z,20.40
2018-11-10T06:45:55.129Z,20.40
2018-11-10T06:59:02.303Z,20.40
2018-11-10T07:12:09.491Z,20.40
2018-11-10T07:25:16.769Z,20.40
2018-11-10T07:38:23.963Z,20.40
2018-11-10T08:04:33.973Z,20.10
2018-11-10T08:17:41.137Z,19.80
2018-11-10T08:30:48.382Z,20.40
2018-11-10T08:43:55.553Z,20.60
2018-11-10T08:57:02.752Z,20.70
2018-11-10T09:10:09.954Z,20.80
2018-11-10T09:23:17.135Z,20.80
2018-11-10T09:36:24.356Z,20.90
2018-11-10T09:49:31.497Z,20.90
2018-11-10T10:02:39.020Z,21.00
2018-11-10T10:15:45.947Z,21.00
2018-11-10T10:28:53.116Z,21.00
2018-11-10T10:42:00.249Z,20.90
2018-11-10T10:55:07.419Z,21.00
2018-11-10T11:08:14.717Z,21.00
2018-11-10T11:21:21.876Z,21.00
2018-11-10T11:34:29.110Z,20.70
2018-11-10T11:47:36.293Z,20.60
2018-11-10T12:00:43.440Z,20.80
2018-11-10T12:13:50.599Z,20.90
2018-11-10T12:26:57.799Z,20.90
2018-11-10T12:40:04.965Z,20.90
2018-11-10T12:53:12.165Z,20.90
2018-11-10T13:06:19.276Z,21.00
2018-11-10T13:19:26.490Z,21.00
2018-11-10T13:32:33.669Z,20.90
2018-11-10T13:45:41.103Z,20.90
2018-11-10T13:58:48.341Z,20.80
2018-11-10T14:11:55.598Z,20.80
2018-11-10T14:25:02.780Z,20.80
2018-11-10T14:38:09.930Z,20.80
2018-11-10T14:51:17.144Z,20.80
2018-11-10T15:17:27.024Z,20.80
2018-11-10T15:30:34.230Z,20.70
2018-11-10T15:43:41.470Z,20.70
2018-11-10T15:56:48.632Z,20.70
2018-11-10T16:22:58.357Z,20.70
2018-11-10T16:36:05.820Z,20.70
2018-11-10T16:49:12.985Z,20.70
2018-11-10T17:16:10.819Z,20.70
2018-11-10T17:29:17.980Z,20.70
2018-11-10T17:42:25.190Z,20.60
2018-11-10T17:55:32.365Z,20.60
2018-11-10T18:08:39.536Z,20.60
2018-11-10T18:21:46.671Z,20.60
2018-11-10T18:34:53.879Z,20.60
2018-11-10T18:48:01.066Z,20.60
2018-11-10T19:14:15.341Z,20.60
2018-11-10T19:27:22.492Z,20.60
2018-11-10T19:40:29.671Z,20.60
2018-11-10T19:53:36.896Z,20.60
2018-11-10T20:19:46.892Z,20.70
2018-11-10T20:45:56.708Z,20.70
2018-11-10T20:59:04.342Z,20.70
2018-11-10T21:38:17.326Z,20.60
2018-11-10T21:51:24.537Z,20.60
2018-11-10T22:04:32.255Z,20.60
2018-11-10T22:17:39.583Z,20.60
2018-11-10T22:30:46.796Z,20.60
2018-11-10T22:56:57.000Z,20.60
2018-11-10T23:10:04.185Z,20.60
2018-11-10T23:23:11.502Z,20.60
2018-11-10T23:36:19.022Z,20.60
2018-11-10T23:49:26.203Z,20.50
